Time;durP1;ratioP1;P1;durP2;ratioP2;P2;SDS_P1;SDS_P2;PMS_P1;PMS_P2;Temp;Humidity;BMP_temperature;BMP_pressure;BME280_temperature;BME280_humidity;BME280_pressure;Samples;Min_cycle;Max_cycle;Signal;HPM_P1;HPM_P2
2022/01/27 00:05:07;;;;;;;5.82;4.03;;;;;;;-3.51;100.00;91343.38;5091738;28;19975;-70
2022/01/27 00:07:33;;;;;;;9.02;5.03;;;;;;;-3.52;100.00;91335.81;5091601;28;20028;-70
2022/01/27 00:10:17;;;;;;;5.72;4.13;;;;;;;-3.42;100.00;91342.13;5091666;28;20524;-70
2022/01/27 00:12:43;;;;;;;11.60;6.40;;;;;;;-3.29;100.00;91335.19;5091550;28;20558;-70
2022/01/27 00:15:12;;;;;;;12.32;5.78;;;;;;;-3.24;100.00;91336.13;5091446;28;20055;-70
2022/01/27 00:17:43;;;;;;;6.47;4.25;;;;;;;-3.25;100.00;91341.56;5091441;28;20027;-70
2022/01/27 00:20:10;;;;;;;10.05;4.85;;;;;;;-3.19;100.00;91340.69;5091495;28;20070;-70
2022/01/27 00:22:35;;;;;;;12.25;6.55;;;;;;;-3.11;100.00;91336.00;5091268;28;20028;-70
2022/01/27 00:25:03;;;;;;;6.55;4.47;;;;;;;-3.17;100.00;91336.84;5091280;28;20031;-71
2022/01/27 00:27:29;;;;;;;6.82;4.43;;;;;;;-3.17;100.00;91336.84;5091252;28;20028;-70
2022/01/27 00:29:54;;;;;;;9.05;4.90;;;;;;;-3.24;100.00;91330.94;5091335;28;20027;-70
2022/01/27 00:32:20;;;;;;;14.32;6.50;;;;;;;-3.16;100.00;91330.63;5091223;28;20039;-70
2022/01/27 00:34:46;;;;;;;16.65;8.75;;;;;;;-3.14;100.00;91325.25;5091281;28;20390;-69
2022/01/27 00:37:11;;;;;;;13.45;5.88;;;;;;;-3.12;100.00;91333.63;5090866;28;20036;-70
2022/01/27 00:39:36;;;;;;;7.68;4.47;;;;;;;-3.28;100.00;91326.38;5091155;28;20058;-70
2022/01/27 00:42:02;;;;;;;11.18;4.78;;;;;;;-3.34;100.00;91336.63;5091091;28;20032;-70
2022/01/27 00:44:28;;;;;;;8.90;4.63;;;;;;;-3.23;100.00;91331.72;5091128;28;20028;-70
2022/01/27 00:46:53;;;;;;;13.65;7.22;;;;;;;-3.12;100.00;91324.00;5090936;28;20035;-69
2022/01/27 00:49:19;;;;;;;15.07;8.38;;;;;;;-3.09;100.00;91326.16;5091083;28;20020;-70
2022/01/27 00:51:46;;;;;;;10.38;6.63;;;;;;;-3.07;100.00;91334.53;5091117;28;20028;-69
2022/01/27 00:54:20;;;;;;;15.50;7.57;;;;;;;-3.06;100.00;91332.75;5091034;28;20422;-70
2022/01/27 01:04:56;;;;;;;7.78;4.50;;;;;;;-3.34;100.00;91323.63;5087570;28;20524;-69
2022/01/27 01:07:22;;;;;;;11.23;5.85;;;;;;;-3.22;100.00;91328.91;5090944;28;20028;-70
2022/01/27 01:13:03;;;;;;;10.20;6.00;;;;;;;-3.21;100.00;91327.09;5093013;28;20031;-70
2022/01/27 01:15:11;;;;;;;12.52;7.13;;;;;;;-3.23;100.00;91331.72;5094757;28;20032;-70
2022/01/27 01:17:49;;;;;;;11.43;6.10;;;;;;;-3.38;100.00;91334.66;5094879;28;20028;-70
2022/01/27 01:31:11;;;;;;;11.43;6.00;;;;;;;-3.49;100.00;91325.75;5094560;28;20096;-69
2022/01/27 01:33:39;;;;;;;13.93;6.93;;;;;;;-3.58;100.00;91311.47;5094555;28;20028;-69
2022/01/27 01:36:14;;;;;;;14.85;7.70;;;;;;;-3.59;100.00;91322.88;5094410;28;20024;-69
2022/01/27 01:38:40;;;;;;;14.52;7.72;;;;;;;-3.58;100.00;91321.06;5094190;28;20520;-70
2022/01/27 01:41:06;;;;;;;20.42;8.15;;;;;;;-3.51;100.00;91314.78;5094412;28;20059;-70
2022/01/27 01:43:31;;;;;;;14.90;8.45;;;;;;;-3.54;100.00;91317.03;5094365;28;20129;-70
2022/01/27 01:45:57;;;;;;;17.15;8.20;;;;;;;-3.58;100.00;91313.28;5092860;28;20043;-70
2022/01/27 01:48:23;;;;;;;24.48;11.55;;;;;;;-3.60;100.00;91305.69;5094320;28;20501;-70
2022/01/27 01:50:49;;;;;;;24.23;10.77;;;;;;;-3.65;100.00;91300.31;5094259;28;20120;-69
2022/01/27 01:53:14;;;;;;;21.08;10.65;;;;;;;-3.68;100.00;91303.34;5094241;28;20028;-70
2022/01/27 01:55:40;;;;;;;19.23;9.32;;;;;;;-3.66;100.00;91302.13;5094379;28;20093;-70
2022/01/27 01:58:06;;;;;;;16.40;8.55;;;;;;;-3.54;100.00;91306.63;5094132;28;20039;-69
2022/01/27 02:00:32;;;;;;;14.30;7.93;;;;;;;-3.49;100.00;91294.56;5094013;28;20089;-70
2022/01/27 02:02:57;;;;;;;14.93;7.50;;;;;;;-3.36;100.00;91294.44;5094050;28;20104;-70
2022/01/27 02:05:28;;;;;;;13.45;7.25;;;;;;;-3.36;100.00;91291.81;5093885;28;20566;-69
2022/01/27 02:08:35;;;;;;;11.25;6.25;;;;;;;-3.45;100.00;91285.34;5093940;28;20542;-69
2022/01/27 02:19:22;;;;;;;10.00;5.57;;;;;;;-3.18;100.00;91279.81;5093943;28;20512;-70
2022/01/27 02:21:50;;;;;;;11.70;6.35;;;;;;;-3.10;100.00;91284.75;5093622;28;20149;-70
2022/01/27 02:24:18;;;;;;;11.18;5.90;;;;;;;-3.07;100.00;91279.09;5092443;28;20103;-70
2022/01/27 02:26:44;;;;;;;10.38;5.65;;;;;;;-3.07;100.00;91276.50;5093457;28;20039;-70
2022/01/27 02:29:10;;;;;;;8.40;4.53;;;;;;;-3.10;100.00;91275.13;5093838;28;20043;-69
2022/01/27 02:31:36;;;;;;;8.32;4.28;;;;;;;-3.11;100.00;91283.97;5093508;28;20409;-69
2022/01/27 02:34:04;;;;;;;6.22;4.10;;;;;;;-3.09;100.00;91275.94;5093323;28;20031;-69
2022/01/27 02:36:31;;;;;;;4.35;3.60;;;;;;;-3.05;100.00;91277.06;5093304;28;20100;-69
2022/01/27 02:38:57;;;;;;;5.50;3.30;;;;;;;-2.94;100.00;91289.38;5092170;28;20044;-69
2022/01/27 02:41:25;;;;;;;5.32;3.30;;;;;;;-3.07;100.00;91281.72;5093124;28;20031;-69
2022/01/27 02:43:51;;;;;;;4.82;3.35;;;;;;;-3.18;100.00;91287.63;5093158;28;20032;-69
2022/01/27 02:46:21;;;;;;;4.45;2.88;;;;;;;-3.24;100.00;91276.31;5093049;28;20024;-69
2022/01/27 02:48:47;;;;;;;3.95;3.20;;;;;;;-3.28;100.00;91285.56;5093018;28;20059;-69
2022/01/27 02:51:13;;;;;;;3.55;2.90;;;;;;;-3.27;100.00;91284.53;5093124;28;20052;-69
2022/01/27 02:53:38;;;;;;;4.07;2.75;;;;;;;-3.23;100.00;91290.09;5092985;28;20085;-69
2022/01/27 02:56:04;;;;;;;4.70;3.03;;;;;;;-3.20;100.00;91289.66;5092920;28;20089;-69
2022/01/27 02:58:30;;;;;;;5.60;3.10;;;;;;;-3.21;100.00;91282.88;5092876;28;20085;-69
2022/01/27 03:00:56;;;;;;;5.07;2.88;;;;;;;-3.29;100.00;91290.97;5092668;28;20032;-69
2022/01/27 03:03:21;;;;;;;4.30;2.75;;;;;;;-3.24;100.00;91291.13;5092984;28;20082;-69
2022/01/27 03:05:46;;;;;;;4.57;2.85;;;;;;;-3.34;100.00;91284.59;5092683;28;20055;-69
2022/01/27 03:08:13;;;;;;;4.97;2.80;;;;;;;-3.32;100.00;91287.78;5092717;28;20027;-69
2022/01/27 03:10:48;;;;;;;4.65;3.10;;;;;;;-3.33;100.00;91291.38;5091323;28;20043;-69
2022/01/27 03:13:14;;;;;;;4.03;2.63;;;;;;;-3.37;100.00;91281.63;5092564;28;20462;-69
2022/01/27 03:15:39;;;;;;;3.15;2.45;;;;;;;-3.30;100.00;91284.97;5092388;28;20032;-69
2022/01/27 03:18:05;;;;;;;4.40;2.55;;;;;;;-3.23;100.00;91290.09;5092573;28;20024;-69
2022/01/27 03:20:34;;;;;;;4.18;2.60;;;;;;;-3.19;100.00;91283.44;5092479;28;20035;-69
2022/01/27 03:23:01;;;;;;;3.15;2.55;;;;;;;-3.17;100.00;91289.22;5092315;28;20485;-69
2022/01/27 03:25:27;;;;;;;3.88;2.60;;;;;;;-3.21;100.00;91278.47;5092230;28;20038;-69
2022/01/27 03:27:52;;;;;;;3.38;2.55;;;;;;;-3.15;100.00;91282.81;5092365;28;20106;-69
2022/01/27 03:30:18;;;;;;;3.63;2.25;;;;;;;-3.13;100.00;91280.78;5092308;28;20036;-69
2022/01/27 03:32:44;;;;;;;5.18;2.50;;;;;;;-3.02;100.00;91280.03;5090910;28;20106;-69
2022/01/27 03:35:10;;;;;;;3.92;2.42;;;;;;;-2.97;100.00;91270.78;5091837;28;20028;-69
2022/01/27 03:37:36;;;;;;;3.67;2.22;;;;;;;-2.78;100.00;91273.13;5091976;28;20040;-69
2022/01/27 03:40:02;;;;;;;5.30;3.13;;;;;;;-2.67;100.00;91276.81;5092101;28;20081;-69
2022/01/27 03:42:29;;;;;;;4.03;2.70;;;;;;;-2.60;100.00;91277.50;5092004;28;20126;-69
2022/01/27 03:44:54;;;;;;;4.07;2.83;;;;;;;-2.58;100.00;91287.69;5091968;28;21052;-69
2022/01/27 03:47:20;;;;;;;5.10;2.83;;;;;;;-2.52;100.00;91281.63;5092004;28;20062;-70
2022/01/27 03:49:45;;;;;;;10.00;5.32;;;;;;;-2.57;100.00;91279.66;5091963;28;20020;-69
2022/01/27 03:52:11;;;;;;;23.02;11.13;;;;;;;-2.59;100.00;91291.31;5091835;28;20062;-69
2022/01/27 03:54:36;;;;;;;15.05;6.38;;;;;;;-2.61;100.00;91283.72;5091731;28;20102;-70
2022/01/27 03:57:02;;;;;;;19.52;7.75;;;;;;;-2.67;100.00;91292.44;5091802;28;20035;-69
2022/01/27 03:59:28;;;;;;;3.10;2.30;;;;;;;-2.80;100.00;91285.59;5091745;28;20114;-69
2022/01/27 04:01:54;;;;;;;3.40;2.28;;;;;;;-2.83;100.00;91295.66;5091728;28;20036;-70
2022/01/27 04:04:20;;;;;;;4.65;1.98;;;;;;;-2.91;100.00;91294.13;5091580;28;20034;-69
2022/01/27 04:06:50;;;;;;;2.35;1.90;;;;;;;-2.89;100.00;91302.50;5091570;28;20020;-69
2022/01/27 04:09:15;;;;;;;2.22;1.95;;;;;;;-2.89;100.00;91292.09;5091571;28;20410;-69
2022/01/27 04:11:41;;;;;;;3.22;2.13;;;;;;;-2.98;100.00;91292.63;5091580;28;20028;-69
2022/01/27 04:14:10;;;;;;;3.20;2.00;;;;;;;-3.04;100.00;91299.47;5091560;28;20028;-69
2022/01/27 04:16:36;;;;;;;3.00;2.25;;;;;;;-3.04;100.00;91299.47;5091437;28;20031;-69
2022/01/27 04:19:01;;;;;;;2.53;2.15;;;;;;;-3.16;100.00;91291.59;5091420;28;20028;-69
2022/01/27 04:21:27;;;;;;;6.43;2.35;;;;;;;-3.13;100.00;91295.59;5091289;28;20038;-69
2022/01/27 04:23:53;;;;;;;3.20;2.58;;;;;;;-3.11;100.00;91303.97;5091395;28;20694;-69
2022/01/27 04:26:24;;;;;;;3.65;2.55;;;;;;;-3.13;100.00;91300.81;5091131;28;20027;-69
2022/01/27 04:28:51;;;;;;;3.30;2.15;;;;;;;-3.14;100.00;91304.41;5091235;28;20077;-69
2022/01/27 04:31:16;;;;;;;2.95;2.45;;;;;;;-3.08;100.00;91300.94;5091142;28;20028;-69
2022/01/27 04:33:42;;;;;;;2.95;2.65;;;;;;;-3.06;100.00;91306.72;5091083;28;20031;-69
2022/01/27 04:36:24;;;;;;;3.60;2.78;;;;;;;-3.09;100.00;91307.16;5091083;28;20448;-69
2022/01/27 04:39:11;;;;;;;3.08;2.47;;;;;;;-3.05;100.00;91305.69;5091059;28;20067;-69
2022/01/27 04:44:17;;;;;;;3.47;2.50;;;;;;;-3.09;100.00;91309.75;5091147;28;20028;-69
2022/01/27 04:46:50;;;;;;;5.53;3.58;;;;;;;-3.20;100.00;91300.06;5090334;28;20020;-68
2022/01/27 04:49:16;;;;;;;3.20;2.88;;;;;;;-3.13;100.00;91311.22;5091110;28;20477;-68
2022/01/27 04:51:42;;;;;;;2.65;2.45;;;;;;;-3.05;100.00;91319.50;5089744;28;20027;-68
2022/01/27 04:56:42;;;;;;;5.97;3.17;;;;;;;-3.07;100.00;91310.34;5090904;28;20063;-68
2022/01/27 04:59:14;;;;;;;5.00;3.40;;;;;;;-3.11;100.00;91307.38;5090949;28;20039;-68
2022/01/27 05:01:47;;;;;;;5.10;3.10;;;;;;;-3.01;100.00;91318.06;5090887;28;20016;-68
2022/01/27 05:04:16;;;;;;;3.25;2.70;;;;;;;-3.09;100.00;91307.16;5090948;28;20423;-68
2022/01/27 05:06:42;;;;;;;4.93;3.17;;;;;;;-3.06;100.00;91323.13;5090810;28;20024;-68
2022/01/27 05:09:09;;;;;;;3.40;2.92;;;;;;;-3.08;100.00;91322.56;5089608;28;20535;-68
2022/01/27 05:11:46;;;;;;;68.72;12.80;;;;;;;-3.09;100.00;91322.78;5090810;28;20016;-68
2022/01/27 05:14:17;;;;;;;5.72;3.90;;;;;;;-3.08;100.00;91322.56;5090789;28;20032;-68
2022/01/27 05:16:42;;;;;;;5.07;3.30;;;;;;;-3.09;100.00;91330.56;5090655;28;20074;-68
2022/01/27 05:19:08;;;;;;;5.20;3.03;;;;;;;-3.09;100.00;91338.38;5090772;28;20036;-69
2022/01/27 05:21:34;;;;;;;5.60;3.38;;;;;;;-3.09;100.00;91335.78;5090668;28;20059;-69
2022/01/27 05:24:00;;;;;;;4.88;3.40;;;;;;;-3.01;100.00;91341.47;5090689;28;20035;-69
2022/01/27 05:26:26;;;;;;;4.88;3.65;;;;;;;-3.02;100.00;91334.69;5090634;28;20032;-69
2022/01/27 05:28:52;;;;;;;5.57;3.67;;;;;;;-3.05;100.00;91337.72;5090681;28;20583;-69
2022/01/27 05:31:17;;;;;;;12.18;5.85;;;;;;;-3.04;100.00;91338.53;5090621;28;20454;-69
2022/01/27 05:33:43;;;;;;;7.80;4.30;;;;;;;-3.05;100.00;91340.31;5090605;28;20471;-69
2022/01/27 05:36:09;;;;;;;4.30;3.20;;;;;;;-3.11;100.00;91343.00;5089218;28;20063;-69
2022/01/27 05:38:54;;;;;;;6.43;5.82;;;;;;;-3.15;100.00;91344.47;5090339;28;20059;-69
2022/01/27 05:41:20;;;;;;;15.95;8.73;;;;;;;-3.13;100.00;91345.84;5089104;28;20024;-69
2022/01/27 05:43:45;;;;;;;4.55;3.55;;;;;;;-3.12;100.00;91346.63;5090637;28;20028;-69
2022/01/27 05:46:11;;;;;;;6.03;4.43;;;;;;;-3.12;100.00;91346.63;5090360;28;20024;-69
2022/01/27 05:48:36;;;;;;;6.22;4.00;;;;;;;-3.05;100.00;91348.13;5090583;28;20474;-69
2022/01/27 05:51:03;;;;;;;9.98;5.18;;;;;;;-2.98;100.00;91350.69;5090545;28;20069;-69
2022/01/27 05:53:30;;;;;;;7.53;4.35;;;;;;;-3.02;100.00;91349.50;5090624;28;20425;-69
2022/01/27 05:55:57;;;;;;;10.40;5.97;;;;;;;-3.03;100.00;91348.72;5090311;28;20107;-69
2022/01/27 05:58:23;;;;;;;11.32;6.55;;;;;;;-2.97;100.00;91352.28;5092592;28;20032;-69
2022/01/27 06:00:48;;;;;;;8.82;5.63;;;;;;;-2.96;100.00;91351.25;5094025;28;20032;-70
2022/01/27 06:03:14;;;;;;;8.68;5.93;;;;;;;-2.93;100.00;91348.22;5094038;28;20414;-69
2022/01/27 06:05:39;;;;;;;30.83;27.58;;;;;;;-2.95;100.00;91344.25;5093807;28;20031;-69
2022/01/27 06:08:05;;;;;;;8.05;5.10;;;;;;;-2.85;100.00;91354.94;5093899;28;20035;-69
2022/01/27 06:10:31;;;;;;;7.78;4.50;;;;;;;-2.79;100.00;91354.88;5093859;28;20499;-69
2022/01/27 06:12:56;;;;;;;4.57;3.70;;;;;;;-2.72;100.00;91355.56;5093854;28;20036;-69
2022/01/27 06:15:24;;;;;;;7.22;4.38;;;;;;;-2.75;100.00;91361.22;5093707;28;20032;-69
2022/01/27 06:17:50;;;;;;;7.32;4.68;;;;;;;-2.80;100.00;91357.69;5093609;28;20039;-69
2022/01/27 06:20:17;;;;;;;7.63;3.90;;;;;;;-2.73;100.00;91363.59;5093710;28;20024;-69
2022/01/27 06:22:43;;;;;;;5.18;3.40;;;;;;;-2.69;100.00;91363.94;5093579;28;20028;-69
2022/01/27 06:25:09;;;;;;;19.88;7.35;;;;;;;-2.79;100.00;91367.88;5093478;28;20042;-69
2022/01/27 06:27:36;;;;;;;24.75;16.10;;;;;;;-2.72;100.00;91376.41;5093524;28;20110;-68
2022/01/27 06:30:05;;;;;;;7.68;5.22;;;;;;;-2.66;100.00;91371.34;5093409;28;20035;-69
2022/01/27 06:32:31;;;;;;;7.60;5.70;;;;;;;-2.67;100.00;91362.75;5093226;28;20077;-69
2022/01/27 06:34:57;;;;;;;5.40;4.90;;;;;;;-2.59;100.00;91369.44;5093365;28;20023;-69
2022/01/27 06:37:22;;;;;;;9.23;4.70;;;;;;;-2.54;100.00;91369.59;5093174;28;20569;-69
2022/01/27 06:39:48;;;;;;;12.73;4.90;;;;;;;-2.44;100.00;91367.25;5093342;28;20036;-70
2022/01/27 06:42:14;;;;;;;7.13;4.50;;;;;;;-2.41;100.00;91366.81;5093180;28;20102;-69
2022/01/27 06:44:39;;;;;;;12.25;6.40;;;;;;;-2.35;100.00;91363.34;5093045;28;20056;-68
2022/01/27 06:47:05;;;;;;;16.45;9.55;;;;;;;-2.24;100.00;91361.78;5093060;28;20093;-68
2022/01/27 06:49:31;;;;;;;15.10;6.63;;;;;;;-2.18;100.00;91376.56;5084902;28;20020;-74
2022/01/27 06:51:56;;;;;;;43.28;15.95;;;;;;;-2.10;100.00;91373.63;5092522;28;20110;-68
2022/01/27 06:54:22;;;;;;;10.73;6.22;;;;;;;-2.00;100.00;91375.72;5092906;28;20078;-72
2022/01/27 06:56:47;;;;;;;7.80;5.50;;;;;;;-1.94;100.00;91383.44;5092807;28;20634;-68
2022/01/27 06:59:13;;;;;;;11.05;5.97;;;;;;;-1.83;100.00;91379.28;5093062;28;20058;-67
2022/01/27 07:01:39;;;;;;;27.15;12.63;;;;;;;-1.75;100.00;91365.88;5092678;28;20518;-67
2022/01/27 07:04:05;;;;;;;25.60;11.57;;;;;;;-1.77;100.00;91374.97;5092148;28;20031;-67
2022/01/27 07:06:33;;;;;;;40.72;18.98;;;;;;;-1.93;100.00;91363.34;5092641;28;20093;-67
2022/01/27 07:08:59;;;;;;;32.58;15.00;;;;;;;-1.76;100.00;91379.16;5084327;28;20029;-68
2022/01/27 07:11:24;;;;;;;23.88;14.32;;;;;;;-1.85;100.00;91368.28;5082760;28;20567;-67
2022/01/27 07:13:50;;;;;;;21.63;11.70;;;;;;;-1.81;100.00;91372.00;5072578;28;20063;-67
2022/01/27 07:16:15;;;;;;;17.55;10.50;;;;;;;-1.55;100.00;91376.84;5081905;28;20016;-68
2022/01/27 07:18:41;;;;;;;19.75;9.98;;;;;;;-1.37;100.00;91372.53;5081895;28;20107;-68
2022/01/27 07:21:06;;;;;;;14.18;9.45;;;;;;;-1.30;100.00;91373.22;5080133;28;20048;-68
2022/01/27 07:23:32;;;;;;;13.00;8.25;;;;;;;-1.24;100.00;91373.13;5080157;28;20059;-66
2022/01/27 07:25:59;;;;;;;15.00;9.20;;;;;;;-0.99;100.00;91375.50;5081125;28;20047;-67
2022/01/27 07:28:25;;;;;;;14.07;8.63;;;;;;;-1.08;100.00;91382.09;5076689;28;20021;-67
2022/01/27 07:30:50;;;;;;;17.60;9.68;;;;;;;-0.97;99.61;91377.88;5086683;28;20016;-68
2022/01/27 07:33:16;;;;;;;22.88;10.30;;;;;;;-0.80;97.97;91378.75;5081176;28;20031;-67
2022/01/27 07:35:41;;;;;;;15.18;8.45;;;;;;;-0.78;98.22;91373.31;5079738;28;20028;-67
2022/01/27 07:38:07;;;;;;;11.57;8.48;;;;;;;-0.95;97.65;91381.88;5080485;28;20044;-68
2022/01/27 07:40:33;;;;;;;138.05;45.80;;;;;;;-0.83;97.53;91383.66;5080673;28;20048;-67
2022/01/27 07:42:59;;;;;;;70.85;26.88;;;;;;;-0.54;96.61;91387.13;5080451;28;20040;-68
2022/01/27 07:45:25;;;;;;;75.68;34.72;;;;;;;-0.13;91.69;91380.91;5081904;28;20032;-68
2022/01/27 07:47:50;;;;;;;54.38;25.63;;;;;;;0.11;87.64;91394.66;5080821;28;20085;-67
2022/01/27 07:50:16;;;;;;;61.72;30.48;;;;;;;0.24;87.84;91395.19;5080568;28;20028;-67
2022/01/27 07:52:42;;;;;;;26.38;15.93;;;;;;;0.17;86.87;91388.50;5083259;28;20413;-67
2022/01/27 07:55:12;;;;;;;11.27;7.70;;;;;;;-0.08;88.08;91392.22;5076689;28;20047;-66
2022/01/27 07:57:38;;;;;;;7.65;5.05;;;;;;;0.13;87.72;91382.13;5071210;28;20064;-71
2022/01/27 08:00:05;;;;;;;3.75;3.42;;;;;;;0.00;85.73;91396.31;5081745;28;20067;-66
2022/01/27 08:02:31;;;;;;;5.32;4.60;;;;;;;0.02;87.79;91383.78;5073665;28;20063;-66
2022/01/27 08:04:57;;;;;;;4.95;3.70;;;;;;;0.50;84.46;91378.09;5070461;28;20063;-66
2022/01/27 08:07:22;;;;;;;6.70;4.68;;;;;;;1.08;80.27;91384.72;5071072;28;20036;-66
2022/01/27 08:09:48;;;;;;;4.63;3.83;;;;;;;1.20;79.14;91366.31;5071056;28;20123;-67
2022/01/27 08:12:14;;;;;;;12.93;7.80;;;;;;;2.30;74.54;91364.47;5070955;28;20463;-65
2022/01/27 08:14:41;;;;;;;25.77;13.27;;;;;;;2.85;69.55;91366.00;5078603;28;20024;-66
2022/01/27 08:17:06;;;;;;;20.38;10.73;;;;;;;2.21;70.18;91379.06;5070924;28;20510;-66
2022/01/27 08:19:32;;;;;;;17.05;10.52;;;;;;;1.66;72.32;91375.56;5079307;28;20028;-66
2022/01/27 08:21:58;;;;;;;18.10;10.70;;;;;;;1.56;72.56;91379.88;5081421;28;20632;-67
2022/01/27 08:24:23;;;;;;;13.93;7.93;;;;;;;1.36;72.94;91375.97;5077562;28;20506;-66
2022/01/27 08:26:51;;;;;;;5.93;4.55;;;;;;;0.80;73.87;91387.47;5070971;28;20103;-66
2022/01/27 08:29:21;;;;;;;5.45;4.47;;;;;;;0.33;75.96;91382.53;5076228;28;20037;-66
2022/01/27 08:34:38;;;;;;;6.80;5.53;;;;;;;0.20;78.99;91388.84;5079310;28;20482;-66
2022/01/27 08:37:03;;;;;;;5.72;4.20;;;;;;;0.23;78.55;91393.59;5078732;28;20036;-69
2022/01/27 08:39:29;;;;;;;7.15;4.38;;;;;;;0.38;79.23;91397.50;5080702;28;20244;-65
2022/01/27 08:41:55;;;;;;;8.27;4.68;;;;;;;0.44;78.96;91399.16;5079443;28;20052;-64
2022/01/27 08:44:21;;;;;;;15.20;8.65;;;;;;;0.37;79.36;91403.78;5084394;28;20390;-65
2022/01/27 08:46:47;;;;;;;13.75;7.47;;;;;;;0.14;79.52;91400.22;5076854;28;20078;-64
2022/01/27 08:49:12;;;;;;;11.90;5.68;;;;;;;0.10;79.46;91395.69;5080648;28;20490;-64
2022/01/27 08:51:38;;;;;;;16.85;9.07;;;;;;;0.07;82.07;91402.19;5079679;28;20024;-65
2022/01/27 08:54:04;;;;;;;20.23;10.80;;;;;;;0.14;83.00;91402.84;5079832;28;20074;-65
2022/01/27 08:56:29;;;;;;;11.65;7.63;;;;;;;0.16;82.03;91397.34;5081121;28;20066;-65
2022/01/27 08:58:56;;;;;;;7.53;5.45;;;;;;;0.22;82.39;91397.22;5079181;28;20494;-65
2022/01/27 09:01:23;;;;;;;6.70;4.50;;;;;;;0.37;80.88;91403.78;5074913;28;20484;-64
2022/01/27 09:03:51;;;;;;;7.65;4.85;;;;;;;0.38;81.96;91403.53;5075190;28;20078;-69
2022/01/27 09:06:18;;;;;;;10.15;6.22;;;;;;;0.69;80.62;91399.59;5075684;28;20072;-68
2022/01/27 09:08:44;;;;;;;23.48;12.80;;;;;;;0.39;82.10;91404.31;5070587;28;20063;-68
2022/01/27 09:11:10;;;;;;;34.75;20.88;;;;;;;0.50;84.32;91400.84;5070513;28;20525;-68
2022/01/27 09:13:37;;;;;;;13.90;7.55;;;;;;;0.72;80.70;91412.22;5081261;28;20444;-68
2022/01/27 09:16:07;;;;;;;13.90;8.23;;;;;;;0.99;79.52;91411.59;5080385;28;20040;-68
2022/01/27 09:18:33;;;;;;;7.72;4.53;;;;;;;0.76;78.42;91394.19;5083133;28;20029;-69
2022/01/27 09:21:02;;;;;;;12.77;4.97;;;;;;;1.15;77.80;91400.31;5080387;28;20038;-68
2022/01/27 09:23:28;;;;;;;13.13;7.13;;;;;;;1.08;77.00;91395.22;5076844;28;20036;-68
2022/01/27 09:26:01;;;;;;;15.00;8.23;;;;;;;0.96;78.04;91404.22;5080692;28;20463;-67
2022/01/27 09:28:27;;;;;;;35.00;21.50;;;;;;;1.05;80.33;91400.94;5080226;28;20045;-68
2022/01/27 09:30:52;;;;;;;26.83;15.93;;;;;;;1.52;77.96;91395.31;5078692;28;20464;-67
2022/01/27 09:33:18;;;;;;;46.33;25.70;;;;;;;1.29;80.16;91395.53;5082228;28;20132;-67
2022/01/27 09:35:45;;;;;;;30.42;14.23;;;;;;;1.70;78.62;91397.63;5090232;28;20039;-67
2022/01/27 09:38:11;;;;;;;23.42;13.55;;;;;;;1.39;79.38;91380.72;5094231;28;20055;-67
2022/01/27 09:40:37;;;;;;;15.10;8.80;;;;;;;1.60;76.60;91399.34;5094340;28;20520;-67
2022/01/27 09:43:04;;;;;;;17.10;9.98;;;;;;;1.74;76.70;91390.09;5089167;28;20059;-66
2022/01/27 09:45:35;;;;;;;20.08;11.15;;;;;;;2.69;72.84;91392.16;5076567;28;20040;-67
2022/01/27 09:48:11;;;;;;;24.08;13.27;;;;;;;1.83;73.31;91333.53;5075931;28;20033;-67
2022/01/27 09:51:21;;;;;;;21.00;13.45;;;;;;;1.83;75.05;91385.19;5079122;28;20040;-68
2022/01/27 09:53:35;;;;;;;31.63;19.80;;;;;;;2.10;75.14;91380.78;5093884;28;20081;-67
2022/01/27 09:56:01;;;;;;;20.65;13.45;;;;;;;2.64;72.71;91373.69;5093888;28;20465;-72
2022/01/27 09:58:31;;;;;;;16.42;11.25;;;;;;;3.57;70.16;91366.22;5085079;28;20089;-69
2022/01/27 10:00:57;;;;;;;9.20;6.07;;;;;;;3.67;68.17;91368.13;5083802;28;20030;-68
2022/01/27 10:03:25;;;;;;;18.33;9.48;;;;;;;3.68;67.26;91367.06;5080962;28;20029;-68
2022/01/27 10:05:50;;;;;;;24.13;11.52;;;;;;;3.21;68.88;91359.16;5073463;28;20482;-69
2022/01/27 10:08:19;;;;;;;9.77;5.72;;;;;;;2.66;67.91;91369.00;5072319;28;20115;-67
2022/01/27 10:10:47;;;;;;;13.50;6.90;;;;;;;2.51;70.26;91360.97;5073554;28;20044;-68
2022/01/27 10:13:30;;;;;;;10.40;6.68;;;;;;;2.33;69.99;91354.25;5073464;28;20573;-69
2022/01/27 10:16:14;;;;;;;16.92;11.27;;;;;;;2.09;71.64;91350.34;5073291;28;20094;-71
2022/01/27 10:18:40;;;;;;;;;;;;;;;3.20;68.91;91350.50;5072019;28;20075;-69
2022/01/27 10:21:07;;;;;;;11.38;8.38;;;;;;;3.70;66.10;91351.81;5073305;28;19940;-73
2022/01/27 10:23:39;;;;;;;11.75;7.15;;;;;;;5.00;63.89;91348.94;5073168;28;20062;-69
2022/01/27 10:26:41;;;;;;;7.60;5.22;;;;;;;6.79;55.11;91352.59;5080123;28;20040;-72
2022/01/27 10:29:13;;;;;;;83.90;44.80;;;;;;;5.65;56.66;91349.91;5073303;28;20048;-70
2022/01/27 10:31:41;;;;;;;7.35;5.72;;;;;;;5.82;57.33;91346.94;5084887;28;20071;-71
2022/01/27 10:34:08;;;;;;;4.43;4.03;;;;;;;6.60;55.29;91336.56;5093426;28;20160;-71
2022/01/27 10:36:44;;;;;;;5.03;3.50;;;;;;;9.10;50.28;91353.28;5093473;28;20070;-72
2022/01/27 10:39:17;;;;;;;5.93;4.47;;;;;;;10.88;45.52;91350.03;5093009;28;20051;-70
2022/01/27 10:42:08;;;;;;;3.60;3.30;;;;;;;12.80;40.29;91356.97;5092925;28;20540;-71
2022/01/27 10:44:47;;;;;;;4.30;3.90;;;;;;;12.64;40.69;91339.81;5092149;28;20129;-70
2022/01/27 10:47:21;;;;;;;7.78;5.68;;;;;;;12.92;39.25;91329.63;5092870;28;20470;-69
2022/01/27 10:49:56;;;;;;;4.03;3.63;;;;;;;12.20;40.16;91335.41;5092937;28;20036;-69
2022/01/27 10:55:10;;;;;;;6.85;5.07;;;;;;;12.95;39.70;91333.59;5089128;28;20036;-68
2022/01/27 10:57:36;;;;;;;4.00;3.33;;;;;;;13.57;38.97;91333.28;5083113;28;20582;-68
2022/01/27 11:00:04;;;;;;;4.43;3.70;;;;;;;15.40;37.03;91326.84;5081488;28;20029;-68
2022/01/27 11:02:30;;;;;;;5.47;4.25;;;;;;;14.93;36.56;91321.66;5079388;28;20047;-69
2022/01/27 11:04:55;;;;;;;9.38;4.40;;;;;;;14.59;36.45;91334.13;5082719;28;20036;-69
2022/01/27 11:07:24;;;;;;;5.25;4.40;;;;;;;14.51;36.82;91334.16;5080209;28;20036;-68
2022/01/27 11:09:50;;;;;;;10.25;6.75;;;;;;;13.20;37.17;91324.81;5072176;28;20499;-69
2022/01/27 11:12:18;;;;;;;8.13;6.55;;;;;;;12.07;38.42;91314.97;5080150;28;20568;-69
2022/01/27 11:14:48;;;;;;;4.43;4.00;;;;;;;11.20;41.05;91314.44;5081758;28;20040;-69
2022/01/27 11:17:19;;;;;;;6.68;5.30;;;;;;;12.95;38.82;91312.22;5082238;28;20063;-70
2022/01/27 11:27:36;;;;;;;5.18;4.00;;;;;;;14.15;37.14;91313.97;5080545;28;20043;-69
2022/01/27 11:30:01;;;;;;;14.57;9.77;;;;;;;13.78;37.67;91313.59;5092123;28;20078;-68
2022/01/27 11:32:41;;;;;;;8.30;7.18;;;;;;;10.96;41.51;91308.63;5091630;28;20055;-68
2022/01/27 11:35:27;;;;;;;10.00;6.32;;;;;;;8.66;46.12;91309.34;5091960;28;20102;-66
2022/01/27 11:37:55;;;;;;;11.27;8.35;;;;;;;8.60;46.44;91305.19;5082214;28;20506;-69
2022/01/27 11:40:23;;;;;;;13.00;7.57;;;;;;;7.90;47.84;91301.56;5091820;28;20093;-69
2022/01/27 11:42:54;;;;;;;20.25;11.05;;;;;;;6.38;51.29;91303.69;5083407;28;20044;-70
2022/01/27 11:45:23;;;;;;;11.68;7.65;;;;;;;7.21;50.84;91309.66;5088259;28;20482;-69
2022/01/27 11:48:07;;;;;;;16.73;10.35;;;;;;;7.61;49.35;91298.97;5080978;28;20028;-69
2022/01/27 11:50:37;;;;;;;17.70;9.88;;;;;;;6.33;52.22;91296.59;5080243;28;20054;-70
2022/01/27 11:53:06;;;;;;;14.30;7.00;;;;;;;5.28;54.24;91291.41;5076471;28;20020;-70
2022/01/27 11:55:34;;;;;;;19.23;9.43;;;;;;;4.27;57.56;91295.66;5089464;28;20028;-72
2022/01/27 11:58:13;;;;;;;15.52;9.45;;;;;;;2.99;61.92;91294.34;5071011;28;20116;-71
2022/01/27 12:00:39;;;;;;;13.80;9.48;;;;;;;2.56;63.66;91300.63;5083903;28;20044;-73
2022/01/27 12:03:15;;;;;;;18.40;11.43;;;;;;;2.42;63.40;91283.72;5091421;28;20028;-71
2022/01/27 12:05:45;;;;;;;6.43;5.13;;;;;;;2.19;64.20;91305.03;5086707;28;20028;-70
2022/01/27 12:08:14;;;;;;;12.13;9.10;;;;;;;1.85;66.30;91297.34;5082863;28;20036;-71
2022/01/27 12:10:48;;;;;;;14.50;8.57;;;;;;;1.93;67.10;91301.38;5091221;28;20062;-71
2022/01/27 12:18:59;;;;;;;28.67;16.92;;;;;;;2.12;65.87;91286.88;5090997;28;20023;-77
2022/01/27 12:21:49;;;;;;;85.15;40.03;;;;;;;2.00;67.48;91294.88;5091178;28;20020;-69
2022/01/27 12:26:54;;;;;;;17.35;10.43;;;;;;;1.69;69.27;91293.78;5090936;28;20028;-72
2022/01/27 12:29:27;;;;;;;14.90;8.57;;;;;;;1.65;68.95;91286.66;5090438;28;20036;-74
2022/01/27 12:31:54;;;;;;;18.48;10.65;;;;;;;1.75;71.21;91289.41;5090399;28;20028;-72